sensor_id;sensor_type;location;lat;lon;timestamp;pressure;altitude;pressure_sealevel;temperature;humidity
69842;BME280;57138;51.326;-0.068;2024-01-30T00:01:41;100300.28;;;10.33;100.00
69842;BME280;57138;51.326;-0.068;2024-01-30T00:04:07;100302.16;;;10.47;100.00
69842;BME280;57138;51.326;-0.068;2024-01-30T00:06:32;100293.94;;;10.49;100.00
69842;BME280;57138;51.326;-0.068;2024-01-30T00:08:58;100293.94;;;10.49;100.00
69842;BME280;57138;51.326;-0.068;2024-01-30T00:11:23;100291.91;;;10.51;100.00
69842;BME280;57138;51.326;-0.068;2024-01-30T00:13:51;100286.09;;;10.47;100.00
69842;BME280;57138;51.326;-0.068;2024-01-30T00:16:24;100272.38;;;10.50;100.00
69842;BME280;57138;51.326;-0.068;2024-01-30T00:18:50;100292.28;;;10.48;100.00
69842;BME280;57138;51.326;-0.068;2024-01-30T00:21:19;100282.41;;;10.48;100.00
69842;BME280;57138;51.326;-0.068;2024-01-30T00:23:45;100279.72;;;10.63;100.00
69842;BME280;57138;51.326;-0.068;2024-01-30T00:26:11;100287.44;;;10.58;100.00
69842;BME280;57138;51.326;-0.068;2024-01-30T00:28:37;100294.84;;;10.56;100.00
69842;BME280;57138;51.326;-0.068;2024-01-30T00:31:03;100292.53;;;10.53;100.00
69842;BME280;57138;51.326;-0.068;2024-01-30T00:33:29;100292.59;;;10.59;100.00
69842;BME280;57138;51.326;-0.068;2024-01-30T00:35:55;100298.69;;;10.68;100.00
69842;BME280;57138;51.326;-0.068;2024-01-30T00:38:20;100287.75;;;10.63;100.00
69842;BME280;57138;51.326;-0.068;2024-01-30T00:40:46;100299.88;;;10.66;100.00
69842;BME280;57138;51.326;-0.068;2024-01-30T00:43:11;100312.50;;;10.72;100.00
69842;BME280;57138;51.326;-0.068;2024-01-30T00:45:36;100292.34;;;10.69;100.00
69842;BME280;57138;51.326;-0.068;2024-01-30T00:48:02;100285.63;;;10.58;100.00
69842;BME280;57138;51.326;-0.068;2024-01-30T00:50:27;100287.06;;;10.61;100.00
69842;BME280;57138;51.326;-0.068;2024-01-30T00:52:53;100280.09;;;10.60;100.00
69842;BME280;57138;51.326;-0.068;2024-01-30T00:55:18;100275.13;;;10.57;100.00
69842;BME280;57138;51.326;-0.068;2024-01-30T00:57:44;100291.69;;;10.67;100.00
69842;BME280;57138;51.326;-0.068;2024-01-30T01:00:10;100275.13;;;10.57;100.00
69842;BME280;57138;51.326;-0.068;2024-01-30T01:02:35;100274.66;;;10.53;100.00
69842;BME280;57138;51.326;-0.068;2024-01-30T01:05:02;100290.59;;;10.47;100.00
69842;BME280;57138;51.326;-0.068;2024-01-30T01:07:27;100271.72;;;10.48;100.00
69842;BME280;57138;51.326;-0.068;2024-01-30T01:09:53;100268.69;;;10.36;100.00
69842;BME280;57138;51.326;-0.068;2024-01-30T01:12:18;100270.81;;;10.41;100.00
69842;BME280;57138;51.326;-0.068;2024-01-30T01:14:44;100259.00;;;10.35;100.00
69842;BME280;57138;51.326;-0.068;2024-01-30T01:17:09;100260.19;;;10.33;100.00
69842;BME280;57138;51.326;-0.068;2024-01-30T01:19:34;100261.06;;;10.33;100.00
69842;BME280;57138;51.326;-0.068;2024-01-30T01:22:00;100262.69;;;10.34;100.00
69842;BME280;57138;51.326;-0.068;2024-01-30T01:24:25;100251.81;;;10.21;100.00
69842;BME280;57138;51.326;-0.068;2024-01-30T01:26:51;100256.03;;;10.30;100.00
69842;BME280;57138;51.326;-0.068;2024-01-30T01:29:16;100259.09;;;10.27;100.00
69842;BME280;57138;51.326;-0.068;2024-01-30T01:31:42;100264.69;;;10.32;100.00
69842;BME280;57138;51.326;-0.068;2024-01-30T01:34:11;100273.44;;;10.26;100.00
69842;BME280;57138;51.326;-0.068;2024-01-30T01:36:36;100258.59;;;10.23;100.00
69842;BME280;57138;51.326;-0.068;2024-01-30T01:39:05;100264.59;;;10.11;100.00
69842;BME280;57138;51.326;-0.068;2024-01-30T01:41:32;100267.91;;;10.13;100.00
69842;BME280;57138;51.326;-0.068;2024-01-30T01:43:58;100267.00;;;10.05;100.00
69842;BME280;57138;51.326;-0.068;2024-01-30T01:46:26;100275.31;;;9.96;100.00
69842;BME280;57138;51.326;-0.068;2024-01-30T01:48:52;100258.44;;;9.95;100.00
69842;BME280;57138;51.326;-0.068;2024-01-30T01:51:18;100279.53;;;9.90;100.00
69842;BME280;57138;51.326;-0.068;2024-01-30T01:53:44;100289.75;;;9.86;100.00
69842;BME280;57138;51.326;-0.068;2024-01-30T01:56:10;100281.56;;;9.88;100.00
69842;BME280;57138;51.326;-0.068;2024-01-30T01:58:36;100273.97;;;9.77;100.00
69842;BME280;57138;51.326;-0.068;2024-01-30T02:01:03;100274.69;;;9.70;100.00
69842;BME280;57138;51.326;-0.068;2024-01-30T02:03:30;100295.69;;;9.74;100.00
69842;BME280;57138;51.326;-0.068;2024-01-30T02:05:56;100264.19;;;9.54;100.00
69842;BME280;57138;51.326;-0.068;2024-01-30T02:08:23;100278.63;;;9.60;100.00
69842;BME280;57138;51.326;-0.068;2024-01-30T02:10:49;100257.00;;;9.54;100.00
69842;BME280;57138;51.326;-0.068;2024-01-30T02:13:14;100265.63;;;9.42;100.00
69842;BME280;57138;51.326;-0.068;2024-01-30T02:15:40;100277.22;;;9.49;100.00
69842;BME280;57138;51.326;-0.068;2024-01-30T02:18:05;100286.50;;;9.38;100.00
69842;BME280;57138;51.326;-0.068;2024-01-30T02:20:35;100272.38;;;9.29;100.00
69842;BME280;57138;51.326;-0.068;2024-01-30T02:23:02;100274.78;;;9.24;100.00
69842;BME280;57138;51.326;-0.068;2024-01-30T02:25:33;100268.13;;;9.20;100.00
69842;BME280;57138;51.326;-0.068;2024-01-30T02:28:01;100273.81;;;9.17;100.00
69842;BME280;57138;51.326;-0.068;2024-01-30T02:30:27;100270.84;;;9.12;100.00
69842;BME280;57138;51.326;-0.068;2024-01-30T02:32:52;100274.88;;;9.08;100.00
69842;BME280;57138;51.326;-0.068;2024-01-30T02:35:18;100284.22;;;9.04;100.00
69842;BME280;57138;51.326;-0.068;2024-01-30T02:37:43;100282.78;;;9.01;100.00
69842;BME280;57138;51.326;-0.068;2024-01-30T02:40:09;100287.06;;;9.02;100.00
69842;BME280;57138;51.326;-0.068;2024-01-30T02:42:34;100264.81;;;8.95;100.00
69842;BME280;57138;51.326;-0.068;2024-01-30T02:45:00;100269.53;;;9.08;100.00
69842;BME280;57138;51.326;-0.068;2024-01-30T02:47:25;100277.84;;;9.13;100.00
69842;BME280;57138;51.326;-0.068;2024-01-30T02:49:51;100284.22;;;9.04;100.00
69842;BME280;57138;51.326;-0.068;2024-01-30T02:52:16;100287.75;;;9.04;100.00
69842;BME280;57138;51.326;-0.068;2024-01-30T02:54:41;100296.28;;;8.99;100.00
69842;BME280;57138;51.326;-0.068;2024-01-30T02:57:07;100273.34;;;8.90;100.00
69842;BME280;57138;51.326;-0.068;2024-01-30T02:59:33;100295.78;;;8.96;100.00
69842;BME280;57138;51.326;-0.068;2024-01-30T03:02:01;100300.28;;;8.95;100.00
69842;BME280;57138;51.326;-0.068;2024-01-30T03:04:26;100307.25;;;9.05;100.00
69842;BME280;57138;51.326;-0.068;2024-01-30T03:06:52;100312.94;;;9.02;100.00
69842;BME280;57138;51.326;-0.068;2024-01-30T03:09:17;100322.78;;;9.01;100.00
69842;BME280;57138;51.326;-0.068;2024-01-30T03:11:43;100324.41;;;9.02;100.00
69842;BME280;57138;51.326;-0.068;2024-01-30T03:14:08;100321.09;;;9.00;100.00
69842;BME280;57138;51.326;-0.068;2024-01-30T03:16:37;100319.94;;;9.03;100.00
69842;BME280;57138;51.326;-0.068;2024-01-30T03:19:03;100320.56;;;9.05;100.00
69842;BME280;57138;51.326;-0.068;2024-01-30T03:21:29;100322.25;;;9.06;100.00
69842;BME280;57138;51.326;-0.068;2024-01-30T03:23:54;100318.72;;;9.05;100.00
69842;BME280;57138;51.326;-0.068;2024-01-30T03:26:20;100327.94;;;9.03;100.00
69842;BME280;57138;51.326;-0.068;2024-01-30T03:28:45;100312.97;;;8.93;100.00
69842;BME280;57138;51.326;-0.068;2024-01-30T03:31:13;100324.63;;;8.92;100.00
69842;BME280;57138;51.326;-0.068;2024-01-30T03:33:39;100332.16;;;8.89;100.00
69842;BME280;57138;51.326;-0.068;2024-01-30T03:36:05;100331.88;;;8.84;100.00
69842;BME280;57138;51.326;-0.068;2024-01-30T03:38:30;100333.34;;;8.86;100.00
69842;BME280;57138;51.326;-0.068;2024-01-30T03:40:58;100308.41;;;8.79;100.00
69842;BME280;57138;51.326;-0.068;2024-01-30T03:43:23;100328.19;;;8.85;100.00
69842;BME280;57138;51.326;-0.068;2024-01-30T03:45:49;100329.38;;;8.82;100.00
69842;BME280;57138;51.326;-0.068;2024-01-30T03:48:14;100324.03;;;8.82;100.00
69842;BME280;57138;51.326;-0.068;2024-01-30T03:50:40;100315.72;;;8.77;100.00
69842;BME280;57138;51.326;-0.068;2024-01-30T03:53:05;100327.06;;;8.71;100.00
69842;BME280;57138;51.326;-0.068;2024-01-30T03:55:31;100335.59;;;8.66;100.00
69842;BME280;57138;51.326;-0.068;2024-01-30T03:57:56;100329.97;;;8.61;100.00
69842;BME280;57138;51.326;-0.068;2024-01-30T04:00:22;100319.47;;;8.59;100.00
69842;BME280;57138;51.326;-0.068;2024-01-30T04:02:47;100312.50;;;8.50;100.00
69842;BME280;57138;51.326;-0.068;2024-01-30T04:05:13;100310.38;;;8.45;100.00
69842;BME280;57138;51.326;-0.068;2024-01-30T04:07:38;100328.38;;;8.43;100.00
69842;BME280;57138;51.326;-0.068;2024-01-30T04:10:04;100338.84;;;8.45;100.00
69842;BME280;57138;51.326;-0.068;2024-01-30T04:12:31;100331.50;;;8.47;100.00
69842;BME280;57138;51.326;-0.068;2024-01-30T04:14:57;100315.88;;;8.44;100.00
69842;BME280;57138;51.326;-0.068;2024-01-30T04:17:22;100322.00;;;8.44;100.00
69842;BME280;57138;51.326;-0.068;2024-01-30T04:19:48;100310.19;;;8.47;100.00
69842;BME280;57138;51.326;-0.068;2024-01-30T04:22:13;100303.19;;;8.46;100.00
69842;BME280;57138;51.326;-0.068;2024-01-30T04:24:39;100303.38;;;8.44;100.00
69842;BME280;57138;51.326;-0.068;2024-01-30T04:27:04;100313.16;;;8.52;100.00
69842;BME280;57138;51.326;-0.068;2024-01-30T04:29:30;100324.16;;;8.49;100.00
69842;BME280;57138;51.326;-0.068;2024-01-30T04:31:57;100335.47;;;8.43;100.00
69842;BME280;57138;51.326;-0.068;2024-01-30T04:34:22;100329.84;;;8.46;100.00
69842;BME280;57138;51.326;-0.068;2024-01-30T04:36:48;100329.84;;;8.46;100.00
69842;BME280;57138;51.326;-0.068;2024-01-30T04:39:13;100328.03;;;8.38;100.00
69842;BME280;57138;51.326;-0.068;2024-01-30T04:41:39;100336.19;;;8.45;100.00
69842;BME280;57138;51.326;-0.068;2024-01-30T04:44:05;100327.00;;;8.48;100.00
69842;BME280;57138;51.326;-0.068;2024-01-30T04:46:30;100324.50;;;8.46;100.00
69842;BME280;57138;51.326;-0.068;2024-01-30T04:48:56;100314.19;;;8.51;100.00
69842;BME280;57138;51.326;-0.068;2024-01-30T04:51:21;100309.22;;;8.40;100.00
69842;BME280;57138;51.326;-0.068;2024-01-30T04:53:46;100319.88;;;8.40;100.00
69842;BME280;57138;51.326;-0.068;2024-01-30T04:56:12;100327.19;;;8.38;100.00
69842;BME280;57138;51.326;-0.068;2024-01-30T04:58:38;100319.88;;;8.40;100.00
69842;BME280;57138;51.326;-0.068;2024-01-30T05:01:03;100329.19;;;8.36;100.00
69842;BME280;57138;51.326;-0.068;2024-01-30T05:03:29;100330.53;;;8.40;100.00
69842;BME280;57138;51.326;-0.068;2024-01-30T05:05:58;100337.50;;;8.41;100.00
69842;BME280;57138;51.326;-0.068;2024-01-30T05:08:23;100322.53;;;8.40;100.00
69842;BME280;57138;51.326;-0.068;2024-01-30T05:10:49;100343.66;;;8.41;100.00
69842;BME280;57138;51.326;-0.068;2024-01-30T05:13:14;100349.81;;;8.42;100.00
69842;BME280;57138;51.326;-0.068;2024-01-30T05:15:40;100351.84;;;8.40;100.00
69842;BME280;57138;51.326;-0.068;2024-01-30T05:18:05;100353.47;;;8.41;100.00
69842;BME280;57138;51.326;-0.068;2024-01-30T05:20:31;100361.63;;;8.48;100.00
69842;BME280;57138;51.326;-0.068;2024-01-30T05:22:56;100363.63;;;8.54;100.00
69842;BME280;57138;51.326;-0.068;2024-01-30T05:25:21;100373.16;;;8.48;100.00
69842;BME280;57138;51.326;-0.068;2024-01-30T05:27:48;100393.63;;;8.56;100.00
69842;BME280;57138;51.326;-0.068;2024-01-30T05:30:13;100382.78;;;8.49;100.00
69842;BME280;57138;51.326;-0.068;2024-01-30T05:32:39;100389.09;;;8.56;100.00
69842;BME280;57138;51.326;-0.068;2024-01-30T05:35:04;100403.44;;;8.55;100.00
69842;BME280;57138;51.326;-0.068;2024-01-30T05:37:30;100392.16;;;8.45;100.00
69842;BME280;57138;51.326;-0.068;2024-01-30T05:39:56;100390.63;;;8.51;100.00
69842;BME280;57138;51.326;-0.068;2024-01-30T05:42:22;100391.94;;;8.55;100.00
69842;BME280;57138;51.326;-0.068;2024-01-30T05:44:48;100398.44;;;8.52;100.00
69842;BME280;57138;51.326;-0.068;2024-01-30T05:47:14;100399.13;;;8.54;100.00
69842;BME280;57138;51.326;-0.068;2024-01-30T05:49:39;100410.28;;;8.50;100.00
69842;BME280;57138;51.326;-0.068;2024-01-30T05:52:05;100414.44;;;8.52;100.00
69842;BME280;57138;51.326;-0.068;2024-01-30T05:54:30;100421.28;;;8.47;100.00
69842;BME280;57138;51.326;-0.068;2024-01-30T05:56:56;100428.44;;;8.46;100.00
69842;BME280;57138;51.326;-0.068;2024-01-30T05:59:21;100444.25;;;8.48;100.00
69842;BME280;57138;51.326;-0.068;2024-01-30T06:01:47;100444.06;;;8.49;100.00
69842;BME280;57138;51.326;-0.068;2024-01-30T06:04:13;100435.78;;;8.44;100.00
69842;BME280;57138;51.326;-0.068;2024-01-30T06:06:38;100450.41;;;8.40;100.00
69842;BME280;57138;51.326;-0.068;2024-01-30T06:09:04;100448.06;;;8.28;100.00
69842;BME280;57138;51.326;-0.068;2024-01-30T06:11:29;100456.06;;;8.28;100.00
69842;BME280;57138;51.326;-0.068;2024-01-30T06:13:55;100453.41;;;8.20;100.00
69842;BME280;57138;51.326;-0.068;2024-01-30T06:16:20;100468.06;;;8.16;100.00
69842;BME280;57138;51.326;-0.068;2024-01-30T06:18:47;100470.06;;;8.14;100.00
69842;BME280;57138;51.326;-0.068;2024-01-30T06:21:12;100482.41;;;8.15;100.00
69842;BME280;57138;51.326;-0.068;2024-01-30T06:23:38;100488.22;;;8.10;100.00
69842;BME280;57138;51.326;-0.068;2024-01-30T06:26:04;100475.72;;;8.03;100.00
69842;BME280;57138;51.326;-0.068;2024-01-30T06:28:30;100486.38;;;8.03;100.00
69842;BME280;57138;51.326;-0.068;2024-01-30T06:30:55;100483.84;;;7.93;100.00
69842;BME280;57138;51.326;-0.068;2024-01-30T06:33:21;100480.38;;;7.92;100.00
69842;BME280;57138;51.326;-0.068;2024-01-30T06:35:46;100475.69;;;7.86;100.00
69842;BME280;57138;51.326;-0.068;2024-01-30T06:38:12;100493.03;;;7.82;100.00
69842;BME280;57138;51.326;-0.068;2024-01-30T06:40:38;100514.47;;;7.89;100.00
69842;BME280;57138;51.326;-0.068;2024-01-30T06:43:04;100505.00;;;7.86;100.00
69842;BME280;57138;51.326;-0.068;2024-01-30T06:45:30;100509.31;;;7.79;100.00
69842;BME280;57138;51.326;-0.068;2024-01-30T06:47:55;100517.59;;;7.68;100.00
69842;BME280;57138;51.326;-0.068;2024-01-30T06:50:21;100528.75;;;7.71;100.00
69842;BME280;57138;51.326;-0.068;2024-01-30T06:52:46;100534.91;;;7.72;100.00
69842;BME280;57138;51.326;-0.068;2024-01-30T06:55:12;100531.91;;;7.67;100.00
69842;BME280;57138;51.326;-0.068;2024-01-30T06:57:37;100543.19;;;7.61;100.00
69842;BME280;57138;51.326;-0.068;2024-01-30T07:00:03;100548.84;;;7.58;100.00
69842;BME280;57138;51.326;-0.068;2024-01-30T07:02:29;100552.88;;;7.70;100.00
69842;BME280;57138;51.326;-0.068;2024-01-30T07:04:57;100565.31;;;7.61;100.00
69842;BME280;57138;51.326;-0.068;2024-01-30T07:07:22;100558.44;;;7.50;100.00
69842;BME280;57138;51.326;-0.068;2024-01-30T07:09:47;100569.09;;;7.50;100.00
69842;BME280;57138;51.326;-0.068;2024-01-30T07:12:14;100581.41;;;7.51;100.00
69842;BME280;57138;51.326;-0.068;2024-01-30T07:14:40;100586.72;;;7.51;100.00
69842;BME280;57138;51.326;-0.068;2024-01-30T07:17:05;100580.19;;;7.37;100.00
69842;BME280;57138;51.326;-0.068;2024-01-30T07:19:31;100595.97;;;7.39;100.00
69842;BME280;57138;51.326;-0.068;2024-01-30T07:21:56;100612.09;;;7.37;100.00
69842;BME280;57138;51.326;-0.068;2024-01-30T07:24:22;100601.78;;;7.34;100.00
69842;BME280;57138;51.326;-0.068;2024-01-30T07:26:48;100610.91;;;7.32;100.00
69842;BME280;57138;51.326;-0.068;2024-01-30T07:29:13;100617.53;;;7.28;100.00
69842;BME280;57138;51.326;-0.068;2024-01-30T07:31:38;100625.53;;;7.28;100.00
69842;BME280;57138;51.326;-0.068;2024-01-30T07:34:04;100627.88;;;7.31;100.00
69842;BME280;57138;51.326;-0.068;2024-01-30T07:36:29;100636.81;;;7.30;100.00
69842;BME280;57138;51.326;-0.068;2024-01-30T07:38:55;100638.19;;;7.34;100.00
69842;BME280;57138;51.326;-0.068;2024-01-30T07:41:20;100633.34;;;7.29;100.00
69842;BME280;57138;51.326;-0.068;2024-01-30T07:43:46;100656.31;;;7.38;100.00
69842;BME280;57138;51.326;-0.068;2024-01-30T07:46:12;100651.97;;;7.29;100.00
69842;BME280;57138;51.326;-0.068;2024-01-30T07:48:37;100650.78;;;7.32;100.00
69842;BME280;57138;51.326;-0.068;2024-01-30T07:51:02;100657.78;;;7.33;100.00
69842;BME280;57138;51.326;-0.068;2024-01-30T07:53:29;100661.75;;;7.29;100.00
69842;BME280;57138;51.326;-0.068;2024-01-30T07:55:54;100667.59;;;7.32;100.00
69842;BME280;57138;51.326;-0.068;2024-01-30T07:58:20;100672.06;;;7.32;100.00
69842;BME280;57138;51.326;-0.068;2024-01-30T08:00:45;100682.72;;;7.32;100.00
69842;BME280;57138;51.326;-0.068;2024-01-30T08:03:11;100676.56;;;7.31;100.00
69842;BME280;57138;51.326;-0.068;2024-01-30T08:05:37;100687.72;;;7.35;100.00
69842;BME280;57138;51.326;-0.068;2024-01-30T08:08:04;100693.34;;;7.32;100.00
69842;BME280;57138;51.326;-0.068;2024-01-30T08:10:29;100692.00;;;7.28;100.00
69842;BME280;57138;51.326;-0.068;2024-01-30T08:12:55;100698.97;;;7.29;100.00
69842;BME280;57138;51.326;-0.068;2024-01-30T08:15:20;100702.41;;;7.21;100.00
69842;BME280;57138;51.326;-0.068;2024-01-30T08:17:46;100711.09;;;7.23;100.00
69842;BME280;57138;51.326;-0.068;2024-01-30T08:20:11;100714.94;;;7.29;100.00
69842;BME280;57138;51.326;-0.068;2024-01-30T08:22:40;100719.59;;;7.27;100.00
69842;BME280;57138;51.326;-0.068;2024-01-30T08:25:08;100722.47;;;7.33;100.00
69842;BME280;57138;51.326;-0.068;2024-01-30T08:27:35;100713.28;;;7.28;100.00
69842;BME280;57138;51.326;-0.068;2024-01-30T08:30:03;100723.03;;;7.19;100.00
69842;BME280;57138;51.326;-0.068;2024-01-30T08:32:28;100727.88;;;7.24;100.00
69842;BME280;57138;51.326;-0.068;2024-01-30T08:34:54;100727.25;;;7.30;100.00
69842;BME280;57138;51.326;-0.068;2024-01-30T08:37:19;100731.59;;;7.31;100.00
69842;BME280;57138;51.326;-0.068;2024-01-30T08:39:45;100735.91;;;7.32;100.00
69842;BME280;57138;51.326;-0.068;2024-01-30T08:42:10;100746.88;;;7.29;100.00
69842;BME280;57138;51.326;-0.068;2024-01-30T08:44:36;100742.25;;;7.31;100.00
69842;BME280;57138;51.326;-0.068;2024-01-30T08:47:02;100741.22;;;7.32;100.00
69842;BME280;57138;51.326;-0.068;2024-01-30T08:49:28;100760.06;;;7.38;100.00
69842;BME280;57138;51.326;-0.068;2024-01-30T08:51:53;100758.22;;;7.31;100.00
69842;BME280;57138;51.326;-0.068;2024-01-30T08:54:19;100763.38;;;7.32;100.00
69842;BME280;57138;51.326;-0.068;2024-01-30T08:56:44;100762.81;;;7.29;100.00
69842;BME280;57138;51.326;-0.068;2024-01-30T08:59:10;100756.84;;;7.27;100.00
69842;BME280;57138;51.326;-0.068;2024-01-30T09:01:36;100778.63;;;7.30;100.00
69842;BME280;57138;51.326;-0.068;2024-01-30T09:04:01;100779.78;;;7.28;100.00
69842;BME280;57138;51.326;-0.068;2024-01-30T09:06:27;100777.13;;;7.28;100.00
69842;BME280;57138;51.326;-0.068;2024-01-30T09:08:54;100772.13;;;7.25;100.00
69842;BME280;57138;51.326;-0.068;2024-01-30T09:11:19;100777.44;;;7.25;100.00
69842;BME280;57138;51.326;-0.068;2024-01-30T09:13:45;100787.78;;;7.28;100.00
69842;BME280;57138;51.326;-0.068;2024-01-30T09:16:10;100804.03;;;7.25;100.00
69842;BME280;57138;51.326;-0.068;2024-01-30T09:18:36;100801.13;;;7.36;100.00
69842;BME280;57138;51.326;-0.068;2024-01-30T09:21:01;100802.09;;;7.35;100.00
69842;BME280;57138;51.326;-0.068;2024-01-30T09:23:27;100801.28;;;7.34;100.00
69842;BME280;57138;51.326;-0.068;2024-01-30T09:25:56;100794.75;;;7.29;100.00
69842;BME280;57138;51.326;-0.068;2024-01-30T09:28:21;100810.94;;;7.35;100.00
69842;BME280;57138;51.326;-0.068;2024-01-30T09:30:47;100809.13;;;7.36;100.00
69842;BME280;57138;51.326;-0.068;2024-01-30T09:33:12;100813.13;;;7.40;100.00
69842;BME280;57138;51.326;-0.068;2024-01-30T09:35:38;100816.38;;;7.52;100.00
69842;BME280;57138;51.326;-0.068;2024-01-30T09:38:04;100817.22;;;7.52;100.00
69842;BME280;57138;51.326;-0.068;2024-01-30T09:40:29;100820.44;;;7.56;100.00
69842;BME280;57138;51.326;-0.068;2024-01-30T09:42:55;100823.59;;;7.60;100.00
69842;BME280;57138;51.326;-0.068;2024-01-30T09:45:25;100828.94;;;7.60;100.00
69842;BME280;57138;51.326;-0.068;2024-01-30T09:47:51;100837.28;;;7.65;100.00
69842;BME280;57138;51.326;-0.068;2024-01-30T09:50:18;100830.31;;;7.64;100.00
69842;BME280;57138;51.326;-0.068;2024-01-30T09:52:47;100843.66;;;7.72;100.00
69842;BME280;57138;51.326;-0.068;2024-01-30T09:55:13;100850.97;;;7.70;100.00
69842;BME280;57138;51.326;-0.068;2024-01-30T09:57:39;100861.38;;;7.81;99.91
69842;BME280;57138;51.326;-0.068;2024-01-30T10:00:05;100865.88;;;7.81;100.00
69842;BME280;57138;51.326;-0.068;2024-01-30T10:02:34;100859.53;;;7.82;99.36
69842;BME280;57138;51.326;-0.068;2024-01-30T10:05:00;100863.06;;;7.82;99.10
69842;BME280;57138;51.326;-0.068;2024-01-30T10:07:26;100858.41;;;7.84;99.52
69842;BME280;57138;51.326;-0.068;2024-01-30T10:09:53;100866.41;;;7.84;99.08
69842;BME280;57138;51.326;-0.068;2024-01-30T10:12:18;100874.06;;;7.87;99.19
69842;BME280;57138;51.326;-0.068;2024-01-30T10:14:44;100874.28;;;7.94;98.18
69842;BME280;57138;51.326;-0.068;2024-01-30T10:17:11;100879.59;;;7.94;98.12
69842;BME280;57138;51.326;-0.068;2024-01-30T10:19:37;100885.75;;;7.95;98.36
69842;BME280;57138;51.326;-0.068;2024-01-30T10:22:04;100889.94;;;7.97;98.12
69842;BME280;57138;51.326;-0.068;2024-01-30T10:24:30;100886.81;;;8.02;98.10
69842;BME280;57138;51.326;-0.068;2024-01-30T10:26:56;100896.53;;;8.11;97.45
69842;BME280;57138;51.326;-0.068;2024-01-30T10:29:22;100889.13;;;7.97;98.10
69842;BME280;57138;51.326;-0.068;2024-01-30T10:32:04;100899.81;;;8.05;97.32
69842;BME280;57138;51.326;-0.068;2024-01-30T10:34:30;100899.56;;;8.16;96.80
69842;BME280;57138;51.326;-0.068;2024-01-30T10:39:37;100892.94;;;8.20;95.46
69842;BME280;57138;51.326;-0.068;2024-01-30T10:42:05;100917.13;;;8.27;95.85
69842;BME280;57138;51.326;-0.068;2024-01-30T10:45:04;100928.94;;;8.24;93.32
69842;BME280;57138;51.326;-0.068;2024-01-30T10:47:34;100926.91;;;8.18;94.83
69842;BME280;57138;51.326;-0.068;2024-01-30T10:50:02;100941.56;;;8.22;94.84
69842;BME280;57138;51.326;-0.068;2024-01-30T10:52:29;100947.34;;;8.18;95.34
69842;BME280;57138;51.326;-0.068;2024-01-30T10:54:55;100946.00;;;8.14;95.77
69842;BME280;57138;51.326;-0.068;2024-01-30T10:57:25;100947.34;;;8.18;95.46
69842;BME280;57138;51.326;-0.068;2024-01-30T10:59:53;100953.53;;;8.18;95.65
69842;BME280;57138;51.326;-0.068;2024-01-30T11:02:21;100964.88;;;8.20;94.31
69842;BME280;57138;51.326;-0.068;2024-01-30T11:04:49;100965.78;;;8.11;93.73
69842;BME280;57138;51.326;-0.068;2024-01-30T11:07:19;100962.47;;;8.09;93.46
69842;BME280;57138;51.326;-0.068;2024-01-30T11:09:53;100965.63;;;7.95;93.12
69842;BME280;57138;51.326;-0.068;2024-01-30T11:12:23;100966.13;;;7.90;94.01
69842;BME280;57138;51.326;-0.068;2024-01-30T11:14:49;100971.81;;;7.95;94.25
69842;BME280;57138;51.326;-0.068;2024-01-30T11:17:14;100974.94;;;7.90;93.64
69842;BME280;57138;51.326;-0.068;2024-01-30T11:19:41;100987.44;;;7.90;94.47
69842;BME280;57138;51.326;-0.068;2024-01-30T11:22:07;100990.41;;;7.87;93.88
69842;BME280;57138;51.326;-0.068;2024-01-30T11:24:42;100993.88;;;7.87;92.70
69842;BME280;57138;51.326;-0.068;2024-01-30T11:27:09;100983.22;;;7.87;92.96
69842;BME280;57138;51.326;-0.068;2024-01-30T11:29:37;100976.53;;;7.83;93.05
69842;BME280;57138;51.326;-0.068;2024-01-30T11:32:03;100984.50;;;7.83;93.30
69842;BME280;57138;51.326;-0.068;2024-01-30T11:34:29;100988.19;;;7.82;92.90
69842;BME280;57138;51.326;-0.068;2024-01-30T11:37:07;100997.44;;;7.78;92.85
69842;BME280;57138;51.326;-0.068;2024-01-30T11:39:35;101001.09;;;7.77;91.38
69842;BME280;57138;51.326;-0.068;2024-01-30T11:42:03;101002.94;;;7.77;91.84
69842;BME280;57138;51.326;-0.068;2024-01-30T11:44:30;100999.75;;;7.73;92.06
69842;BME280;57138;51.326;-0.068;2024-01-30T11:46:56;101009.84;;;7.69;91.41
69842;BME280;57138;51.326;-0.068;2024-01-30T11:49:23;101012.13;;;7.64;91.65
69842;BME280;57138;51.326;-0.068;2024-01-30T11:51:48;101008.63;;;7.64;92.12
69842;BME280;57138;51.326;-0.068;2024-01-30T11:54:15;101019.94;;;7.66;91.55
69842;BME280;57138;51.326;-0.068;2024-01-30T11:56:41;101016.63;;;7.64;91.38
69842;BME280;57138;51.326;-0.068;2024-01-30T11:59:07;101013.81;;;7.65;91.37
69842;BME280;57138;51.326;-0.068;2024-01-30T12:01:33;101027.78;;;7.67;91.30
69842;BME280;57138;51.326;-0.068;2024-01-30T12:04:01;101030.31;;;7.69;91.55
69842;BME280;57138;51.326;-0.068;2024-01-30T12:06:28;101031.13;;;7.69;92.01
69842;BME280;57138;51.326;-0.068;2024-01-30T12:09:01;101043.75;;;7.67;91.47
69842;BME280;57138;51.326;-0.068;2024-01-30T12:11:29;101036.75;;;7.66;91.21
69842;BME280;57138;51.326;-0.068;2024-01-30T12:13:56;101048.56;;;7.64;91.79
69842;BME280;57138;51.326;-0.068;2024-01-30T12:16:25;101037.03;;;7.63;91.48
69842;BME280;57138;51.326;-0.068;2024-01-30T12:18:59;101031.72;;;7.63;91.19
69842;BME280;57138;51.326;-0.068;2024-01-30T12:21:24;101034.78;;;7.68;91.80
69842;BME280;57138;51.326;-0.068;2024-01-30T12:23:52;101040.94;;;7.69;92.12
69842;BME280;57138;51.326;-0.068;2024-01-30T12:26:17;101042.06;;;7.66;92.17
69842;BME280;57138;51.326;-0.068;2024-01-30T12:28:49;101038.28;;;7.69;91.27
69842;BME280;57138;51.326;-0.068;2024-01-30T12:31:15;101039.13;;;7.69;90.55
69842;BME280;57138;51.326;-0.068;2024-01-30T12:33:41;101035.53;;;7.61;90.61
69842;BME280;57138;51.326;-0.068;2024-01-30T12:36:06;101050.34;;;7.63;91.06
69842;BME280;57138;51.326;-0.068;2024-01-30T12:38:32;101056.38;;;7.65;89.28